sensor_id;sensor_type;location;lat;lon;timestamp;P1;P2;P0
49462;PMS5003;35357;51.722;0.500;2023-08-08T00:00:26;6;6;
49462;PMS5003;35357;51.722;0.500;2023-08-08T00:02:53;7;7;
49462;PMS5003;35357;51.722;0.500;2023-08-08T00:05:20;6;6;
49462;PMS5003;35357;51.722;0.500;2023-08-08T00:07:47;7;7;
49462;PMS5003;35357;51.722;0.500;2023-08-08T00:10:14;6;5;
49462;PMS5003;35357;51.722;0.500;2023-08-08T00:12:41;6;6;
49462;PMS5003;35357;51.722;0.500;2023-08-08T00:15:08;7;6;
49462;PMS5003;35357;51.722;0.500;2023-08-08T00:17:36;5;5;
49462;PMS5003;35357;51.722;0.500;2023-08-08T00:20:03;6;6;
49462;PMS5003;35357;51.722;0.500;2023-08-08T00:22:31;6;5;
49462;PMS5003;35357;51.722;0.500;2023-08-08T00:24:59;5;5;
49462;PMS5003;35357;51.722;0.500;2023-08-08T00:27:26;6;5;
49462;PMS5003;35357;51.722;0.500;2023-08-08T00:29:53;7;6;
49462;PMS5003;35357;51.722;0.500;2023-08-08T00:32:20;6;5;
49462;PMS5003;35357;51.722;0.500;2023-08-08T00:34:47;6;6;
49462;PMS5003;35357;51.722;0.500;2023-08-08T00:37:14;5;5;
49462;PMS5003;35357;51.722;0.500;2023-08-08T00:39:42;7;7;
49462;PMS5003;35357;51.722;0.500;2023-08-08T00:42:08;5;5;
49462;PMS5003;35357;51.722;0.500;2023-08-08T00:44:35;4;3;
49462;PMS5003;35357;51.722;0.500;2023-08-08T00:47:02;6;6;
49462;PMS5003;35357;51.722;0.500;2023-08-08T00:49:30;5;5;
49462;PMS5003;35357;51.722;0.500;2023-08-08T00:51:57;7;6;
49462;PMS5003;35357;51.722;0.500;2023-08-08T00:54:24;4;4;
49462;PMS5003;35357;51.722;0.500;2023-08-08T00:56:52;4;4;
49462;PMS5003;35357;51.722;0.500;2023-08-08T00:59:19;6;6;
49462;PMS5003;35357;51.722;0.500;2023-08-08T01:01:46;6;5;
49462;PMS5003;35357;51.722;0.500;2023-08-08T01:04:13;3;3;
49462;PMS5003;35357;51.722;0.500;2023-08-08T01:06:42;3;3;
49462;PMS5003;35357;51.722;0.500;2023-08-08T01:09:18;4;4;
49462;PMS5003;35357;51.722;0.500;2023-08-08T01:11:52;4;4;
49462;PMS5003;35357;51.722;0.500;2023-08-08T01:14:20;5;5;
49462;PMS5003;35357;51.722;0.500;2023-08-08T01:16:50;4;4;
49462;PMS5003;35357;51.722;0.500;2023-08-08T01:19:25;4;3;
49462;PMS5003;35357;51.722;0.500;2023-08-08T01:21:57;3;3;
49462;PMS5003;35357;51.722;0.500;2023-08-08T01:24:28;4;3;
49462;PMS5003;35357;51.722;0.500;2023-08-08T01:26:56;6;6;
49462;PMS5003;35357;51.722;0.500;2023-08-08T01:29:24;5;5;
49462;PMS5003;35357;51.722;0.500;2023-08-08T01:31:51;5;5;
49462;PMS5003;35357;51.722;0.500;2023-08-08T01:34:18;5;5;
49462;PMS5003;35357;51.722;0.500;2023-08-08T01:36:46;4;4;
49462;PMS5003;35357;51.722;0.500;2023-08-08T01:39:20;5;5;
49462;PMS5003;35357;51.722;0.500;2023-08-08T01:41:49;6;6;
49462;PMS5003;35357;51.722;0.500;2023-08-08T01:44:19;8;8;
49462;PMS5003;35357;51.722;0.500;2023-08-08T01:46:47;6;6;
49462;PMS5003;35357;51.722;0.500;2023-08-08T01:49:15;5;5;
49462;PMS5003;35357;51.722;0.500;2023-08-08T01:51:42;7;7;
49462;PMS5003;35357;51.722;0.500;2023-08-08T01:54:08;5;5;
49462;PMS5003;35357;51.722;0.500;2023-08-08T01:56:35;8;6;
49462;PMS5003;35357;51.722;0.500;2023-08-08T01:59:03;4;4;
49462;PMS5003;35357;51.722;0.500;2023-08-08T02:01:30;5;5;
49462;PMS5003;35357;51.722;0.500;2023-08-08T02:03:57;5;5;
49462;PMS5003;35357;51.722;0.500;2023-08-08T02:06:24;5;5;
49462;PMS5003;35357;51.722;0.500;2023-08-08T02:08:51;5;5;
49462;PMS5003;35357;51.722;0.500;2023-08-08T02:11:18;5;5;
49462;PMS5003;35357;51.722;0.500;2023-08-08T02:13:44;5;4;
49462;PMS5003;35357;51.722;0.500;2023-08-08T02:16:11;5;5;
49462;PMS5003;35357;51.722;0.500;2023-08-08T02:18:38;4;4;
49462;PMS5003;35357;51.722;0.500;2023-08-08T02:21:05;6;6;
49462;PMS5003;35357;51.722;0.500;2023-08-08T02:23:32;4;4;
49462;PMS5003;35357;51.722;0.500;2023-08-08T02:25:59;3;3;
49462;PMS5003;35357;51.722;0.500;2023-08-08T02:28:26;4;4;
49462;PMS5003;35357;51.722;0.500;2023-08-08T02:30:53;4;4;
49462;PMS5003;35357;51.722;0.500;2023-08-08T02:33:20;3;3;
49462;PMS5003;35357;51.722;0.500;2023-08-08T02:35:47;3;3;
49462;PMS5003;35357;51.722;0.500;2023-08-08T02:38:14;4;4;
49462;PMS5003;35357;51.722;0.500;2023-08-08T02:40:41;5;5;
49462;PMS5003;35357;51.722;0.500;2023-08-08T02:43:08;4;4;
49462;PMS5003;35357;51.722;0.500;2023-08-08T02:45:35;5;5;
49462;PMS5003;35357;51.722;0.500;2023-08-08T02:48:02;5;4;
49462;PMS5003;35357;51.722;0.500;2023-08-08T02:50:29;7;6;
49462;PMS5003;35357;51.722;0.500;2023-08-08T02:52:57;4;4;
49462;PMS5003;35357;51.722;0.500;2023-08-08T02:55:24;5;4;
49462;PMS5003;35357;51.722;0.500;2023-08-08T02:57:51;6;5;
49462;PMS5003;35357;51.722;0.500;2023-08-08T03:00:18;5;5;
49462;PMS5003;35357;51.722;0.500;2023-08-08T03:02:46;4;4;
49462;PMS5003;35357;51.722;0.500;2023-08-08T03:05:13;4;4;
49462;PMS5003;35357;51.722;0.500;2023-08-08T03:07:40;5;5;
49462;PMS5003;35357;51.722;0.500;2023-08-08T03:10:07;5;5;
49462;PMS5003;35357;51.722;0.500;2023-08-08T03:12:35;4;4;
49462;PMS5003;35357;51.722;0.500;2023-08-08T03:15:02;4;4;
49462;PMS5003;35357;51.722;0.500;2023-08-08T03:17:30;5;4;
49462;PMS5003;35357;51.722;0.500;2023-08-08T03:19:57;5;4;
49462;PMS5003;35357;51.722;0.500;2023-08-08T03:22:24;5;5;
49462;PMS5003;35357;51.722;0.500;2023-08-08T03:24:51;4;4;
49462;PMS5003;35357;51.722;0.500;2023-08-08T03:27:18;6;6;
49462;PMS5003;35357;51.722;0.500;2023-08-08T03:29:45;3;3;
49462;PMS5003;35357;51.722;0.500;2023-08-08T03:32:11;5;4;
49462;PMS5003;35357;51.722;0.500;2023-08-08T03:34:39;4;4;
49462;PMS5003;35357;51.722;0.500;2023-08-08T03:37:06;5;5;
49462;PMS5003;35357;51.722;0.500;2023-08-08T03:39:33;3;3;
49462;PMS5003;35357;51.722;0.500;2023-08-08T03:42:00;4;4;
49462;PMS5003;35357;51.722;0.500;2023-08-08T03:44:26;3;3;
49462;PMS5003;35357;51.722;0.500;2023-08-08T03:46:53;1;1;
49462;PMS5003;35357;51.722;0.500;2023-08-08T03:49:20;3;3;
49462;PMS5003;35357;51.722;0.500;2023-08-08T03:51:47;4;4;
49462;PMS5003;35357;51.722;0.500;2023-08-08T03:54:14;4;4;
49462;PMS5003;35357;51.722;0.500;2023-08-08T03:56:42;3;3;
49462;PMS5003;35357;51.722;0.500;2023-08-08T03:59:09;2;2;
49462;PMS5003;35357;51.722;0.500;2023-08-08T04:01:35;3;3;
49462;PMS5003;35357;51.722;0.500;2023-08-08T04:04:02;5;5;
49462;PMS5003;35357;51.722;0.500;2023-08-08T04:06:30;5;5;
49462;PMS5003;35357;51.722;0.500;2023-08-08T04:08:58;3;3;
49462;PMS5003;35357;51.722;0.500;2023-08-08T04:11:24;6;6;
49462;PMS5003;35357;51.722;0.500;2023-08-08T04:13:51;4;4;
49462;PMS5003;35357;51.722;0.500;2023-08-08T04:16:18;4;4;
49462;PMS5003;35357;51.722;0.500;2023-08-08T04:18:45;4;4;
49462;PMS5003;35357;51.722;0.500;2023-08-08T04:21:11;6;6;
49462;PMS5003;35357;51.722;0.500;2023-08-08T04:23:38;4;4;
49462;PMS5003;35357;51.722;0.500;2023-08-08T04:26:05;4;4;
49462;PMS5003;35357;51.722;0.500;2023-08-08T04:28:32;5;5;
49462;PMS5003;35357;51.722;0.500;2023-08-08T04:30:59;6;6;
49462;PMS5003;35357;51.722;0.500;2023-08-08T04:33:25;6;5;
49462;PMS5003;35357;51.722;0.500;2023-08-08T04:35:52;5;5;
49462;PMS5003;35357;51.722;0.500;2023-08-08T04:38:19;6;6;
49462;PMS5003;35357;51.722;0.500;2023-08-08T04:40:46;6;6;
49462;PMS5003;35357;51.722;0.500;2023-08-08T04:43:13;8;7;
49462;PMS5003;35357;51.722;0.500;2023-08-08T04:45:40;6;6;
49462;PMS5003;35357;51.722;0.500;2023-08-08T04:48:07;9;7;
49462;PMS5003;35357;51.722;0.500;2023-08-08T04:50:33;8;7;
49462;PMS5003;35357;51.722;0.500;2023-08-08T04:53:00;6;5;
49462;PMS5003;35357;51.722;0.500;2023-08-08T04:55:27;5;5;
49462;PMS5003;35357;51.722;0.500;2023-08-08T04:57:54;5;5;
49462;PMS5003;35357;51.722;0.500;2023-08-08T05:00:21;5;5;
49462;PMS5003;35357;51.722;0.500;2023-08-08T05:02:48;5;4;
49462;PMS5003;35357;51.722;0.500;2023-08-08T05:05:15;4;4;
49462;PMS5003;35357;51.722;0.500;2023-08-08T05:07:42;4;4;
49462;PMS5003;35357;51.722;0.500;2023-08-08T05:10:09;5;5;
49462;PMS5003;35357;51.722;0.500;2023-08-08T05:12:36;5;5;
49462;PMS5003;35357;51.722;0.500;2023-08-08T05:15:03;7;7;
49462;PMS5003;35357;51.722;0.500;2023-08-08T05:17:32;5;5;
49462;PMS5003;35357;51.722;0.500;2023-08-08T05:19:59;4;4;
49462;PMS5003;35357;51.722;0.500;2023-08-08T05:22:26;7;7;
49462;PMS5003;35357;51.722;0.500;2023-08-08T05:24:53;5;5;
49462;PMS5003;35357;51.722;0.500;2023-08-08T05:27:20;5;5;
49462;PMS5003;35357;51.722;0.500;2023-08-08T05:29:46;5;5;
49462;PMS5003;35357;51.722;0.500;2023-08-08T05:32:13;3;3;
49462;PMS5003;35357;51.722;0.500;2023-08-08T05:34:41;5;5;
49462;PMS5003;35357;51.722;0.500;2023-08-08T05:37:08;3;3;
49462;PMS5003;35357;51.722;0.500;2023-08-08T05:39:34;5;4;
49462;PMS5003;35357;51.722;0.500;2023-08-08T05:42:01;3;3;
49462;PMS5003;35357;51.722;0.500;2023-08-08T05:44:29;3;3;
49462;PMS5003;35357;51.722;0.500;2023-08-08T05:46:56;4;4;
49462;PMS5003;35357;51.722;0.500;2023-08-08T05:49:22;6;5;
49462;PMS5003;35357;51.722;0.500;2023-08-08T05:51:49;4;4;
49462;PMS5003;35357;51.722;0.500;2023-08-08T05:54:16;4;4;
49462;PMS5003;35357;51.722;0.500;2023-08-08T05:56:43;4;4;
49462;PMS5003;35357;51.722;0.500;2023-08-08T05:59:10;6;6;
49462;PMS5003;35357;51.722;0.500;2023-08-08T06:01:36;5;5;
49462;PMS5003;35357;51.722;0.500;2023-08-08T06:04:03;6;5;
49462;PMS5003;35357;51.722;0.500;2023-08-08T06:06:31;4;4;
49462;PMS5003;35357;51.722;0.500;2023-08-08T06:08:58;5;4;
49462;PMS5003;35357;51.722;0.500;2023-08-08T06:11:24;6;6;
49462;PMS5003;35357;51.722;0.500;2023-08-08T06:13:51;3;3;
49462;PMS5003;35357;51.722;0.500;2023-08-08T06:16:18;8;7;
49462;PMS5003;35357;51.722;0.500;2023-08-08T06:18:45;6;5;
49462;PMS5003;35357;51.722;0.500;2023-08-08T06:21:11;5;5;
49462;PMS5003;35357;51.722;0.500;2023-08-08T06:23:38;5;5;
49462;PMS5003;35357;51.722;0.500;2023-08-08T06:26:05;5;5;
49462;PMS5003;35357;51.722;0.500;2023-08-08T06:28:33;3;3;
49462;PMS5003;35357;51.722;0.500;2023-08-08T06:31:00;5;4;
49462;PMS5003;35357;51.722;0.500;2023-08-08T06:33:28;3;3;
49462;PMS5003;35357;51.722;0.500;2023-08-08T06:35:56;5;4;
49462;PMS5003;35357;51.722;0.500;2023-08-08T06:38:22;5;5;
49462;PMS5003;35357;51.722;0.500;2023-08-08T06:40:49;4;4;
49462;PMS5003;35357;51.722;0.500;2023-08-08T06:43:16;4;4;
49462;PMS5003;35357;51.722;0.500;2023-08-08T06:45:43;4;4;
49462;PMS5003;35357;51.722;0.500;2023-08-08T06:48:10;5;5;
49462;PMS5003;35357;51.722;0.500;2023-08-08T06:50:38;3;3;
49462;PMS5003;35357;51.722;0.500;2023-08-08T06:53:04;5;4;
49462;PMS5003;35357;51.722;0.500;2023-08-08T06:55:32;4;4;
49462;PMS5003;35357;51.722;0.500;2023-08-08T06:58:00;3;3;
49462;PMS5003;35357;51.722;0.500;2023-08-08T07:00:26;4;4;
49462;PMS5003;35357;51.722;0.500;2023-08-08T07:02:53;4;4;
49462;PMS5003;35357;51.722;0.500;2023-08-08T07:05:20;3;3;
49462;PMS5003;35357;51.722;0.500;2023-08-08T07:07:48;3;3;
49462;PMS5003;35357;51.722;0.500;2023-08-08T07:10:15;3;3;
49462;PMS5003;35357;51.722;0.500;2023-08-08T07:12:43;3;3;
49462;PMS5003;35357;51.722;0.500;2023-08-08T07:15:10;7;5;
49462;PMS5003;35357;51.722;0.500;2023-08-08T07:17:37;4;4;
49462;PMS5003;35357;51.722;0.500;2023-08-08T07:20:05;4;3;
49462;PMS5003;35357;51.722;0.500;2023-08-08T07:22:32;4;4;
49462;PMS5003;35357;51.722;0.500;2023-08-08T07:24:59;3;3;
49462;PMS5003;35357;51.722;0.500;2023-08-08T07:27:27;4;3;
49462;PMS5003;35357;51.722;0.500;2023-08-08T07:29:53;4;4;
49462;PMS5003;35357;51.722;0.500;2023-08-08T07:32:20;4;4;
49462;PMS5003;35357;51.722;0.500;2023-08-08T07:34:47;4;3;
49462;PMS5003;35357;51.722;0.500;2023-08-08T07:37:14;3;3;
49462;PMS5003;35357;51.722;0.500;2023-08-08T07:39:41;3;3;
49462;PMS5003;35357;51.722;0.500;2023-08-08T07:42:08;2;2;
49462;PMS5003;35357;51.722;0.500;2023-08-08T07:44:35;4;4;
49462;PMS5003;35357;51.722;0.500;2023-08-08T07:47:01;6;6;
49462;PMS5003;35357;51.722;0.500;2023-08-08T07:49:28;3;3;
49462;PMS5003;35357;51.722;0.500;2023-08-08T07:51:56;5;5;
49462;PMS5003;35357;51.722;0.500;2023-08-08T07:54:23;3;2;
49462;PMS5003;35357;51.722;0.500;2023-08-08T07:56:50;4;4;
49462;PMS5003;35357;51.722;0.500;2023-08-08T07:59:17;3;3;
49462;PMS5003;35357;51.722;0.500;2023-08-08T08:01:44;3;3;
49462;PMS5003;35357;51.722;0.500;2023-08-08T08:04:11;4;4;
49462;PMS5003;35357;51.722;0.500;2023-08-08T08:06:38;3;3;
49462;PMS5003;35357;51.722;0.500;2023-08-08T08:09:06;4;3;
49462;PMS5003;35357;51.722;0.500;2023-08-08T08:11:32;2;2;
49462;PMS5003;35357;51.722;0.500;2023-08-08T08:13:59;4;4;
49462;PMS5003;35357;51.722;0.500;2023-08-08T08:16:27;4;4;
49462;PMS5003;35357;51.722;0.500;2023-08-08T08:18:54;4;4;
49462;PMS5003;35357;51.722;0.500;2023-08-08T08:21:20;4;4;
49462;PMS5003;35357;51.722;0.500;2023-08-08T08:23:47;4;4;
49462;PMS5003;35357;51.722;0.500;2023-08-08T08:26:14;2;2;
49462;PMS5003;35357;51.722;0.500;2023-08-08T08:28:41;4;4;
49462;PMS5003;35357;51.722;0.500;2023-08-08T08:31:08;4;3;
49462;PMS5003;35357;51.722;0.500;2023-08-08T08:33:35;2;2;
49462;PMS5003;35357;51.722;0.500;2023-08-08T08:36:02;2;2;
49462;PMS5003;35357;51.722;0.500;2023-08-08T08:38:29;4;4;
49462;PMS5003;35357;51.722;0.500;2023-08-08T08:40:56;2;2;
49462;PMS5003;35357;51.722;0.500;2023-08-08T08:43:25;3;3;
49462;PMS5003;35357;51.722;0.500;2023-08-08T08:45:52;3;3;
49462;PMS5003;35357;51.722;0.500;2023-08-08T08:48:21;1;1;
49462;PMS5003;35357;51.722;0.500;2023-08-08T08:50:48;5;5;
49462;PMS5003;35357;51.722;0.500;2023-08-08T08:53:16;3;3;
49462;PMS5003;35357;51.722;0.500;2023-08-08T08:55:44;2;2;
49462;PMS5003;35357;51.722;0.500;2023-08-08T08:58:12;2;2;
49462;PMS5003;35357;51.722;0.500;2023-08-08T09:00:43;3;3;
49462;PMS5003;35357;51.722;0.500;2023-08-08T09:03:11;5;4;
49462;PMS5003;35357;51.722;0.500;2023-08-08T09:05:38;4;3;
49462;PMS5003;35357;51.722;0.500;2023-08-08T09:08:07;4;4;
49462;PMS5003;35357;51.722;0.500;2023-08-08T09:10:35;3;2;
49462;PMS5003;35357;51.722;0.500;2023-08-08T09:13:03;2;2;
49462;PMS5003;35357;51.722;0.500;2023-08-08T09:15:31;3;3;
49462;PMS5003;35357;51.722;0.500;2023-08-08T09:17:58;3;3;
49462;PMS5003;35357;51.722;0.500;2023-08-08T09:20:26;3;3;
49462;PMS5003;35357;51.722;0.500;2023-08-08T09:22:54;2;2;
49462;PMS5003;35357;51.722;0.500;2023-08-08T09:25:21;3;3;
49462;PMS5003;35357;51.722;0.500;2023-08-08T09:27:48;4;3;
49462;PMS5003;35357;51.722;0.500;2023-08-08T09:30:17;5;5;
49462;PMS5003;35357;51.722;0.500;2023-08-08T09:32:44;4;4;
49462;PMS5003;35357;51.722;0.500;2023-08-08T09:35:11;4;4;
49462;PMS5003;35357;51.722;0.500;2023-08-08T09:37:39;4;4;
49462;PMS5003;35357;51.722;0.500;2023-08-08T09:40:06;2;2;
49462;PMS5003;35357;51.722;0.500;2023-08-08T09:42:34;3;3;
49462;PMS5003;35357;51.722;0.500;2023-08-08T09:45:01;4;4;
49462;PMS5003;35357;51.722;0.500;2023-08-08T09:47:30;2;2;
49462;PMS5003;35357;51.722;0.500;2023-08-08T09:49:58;3;3;
49462;PMS5003;35357;51.722;0.500;2023-08-08T09:52:27;3;3;
49462;PMS5003;35357;51.722;0.500;2023-08-08T09:54:55;4;4;
49462;PMS5003;35357;51.722;0.500;2023-08-08T09:57:22;2;2;
49462;PMS5003;35357;51.722;0.500;2023-08-08T09:59:49;4;4;
49462;PMS5003;35357;51.722;0.500;2023-08-08T10:02:18;3;3;
49462;PMS5003;35357;51.722;0.500;2023-08-08T10:04:46;4;4;
49462;PMS5003;35357;51.722;0.500;2023-08-08T10:07:14;1;1;
49462;PMS5003;35357;51.722;0.500;2023-08-08T10:09:41;4;3;
49462;PMS5003;35357;51.722;0.500;2023-08-08T10:12:10;2;2;
49462;PMS5003;35357;51.722;0.500;2023-08-08T10:14:41;3;3;
49462;PMS5003;35357;51.722;0.500;2023-08-08T10:17:12;1;1;
49462;PMS5003;35357;51.722;0.500;2023-08-08T10:19:49;3;3;
49462;PMS5003;35357;51.722;0.500;2023-08-08T10:22:20;2;2;
49462;PMS5003;35357;51.722;0.500;2023-08-08T10:24:48;2;2;
49462;PMS5003;35357;51.722;0.500;2023-08-08T10:27:27;4;4;
49462;PMS5003;35357;51.722;0.500;2023-08-08T10:30:00;4;4;
49462;PMS5003;35357;51.722;0.500;2023-08-08T10:32:37;2;2;
49462;PMS5003;35357;51.722;0.500;2023-08-08T10:35:05;4;3;
49462;PMS5003;35357;51.722;0.500;2023-08-08T10:37:35;3;3;
49462;PMS5003;35357;51.722;0.500;2023-08-08T10:40:03;1;1;
49462;PMS5003;35357;51.722;0.500;2023-08-08T10:42:31;2;2;
49462;PMS5003;35357;51.722;0.500;2023-08-08T10:45:01;3;3;
49462;PMS5003;35357;51.722;0.500;2023-08-08T10:47:30;4;4;
49462;PMS5003;35357;51.722;0.500;2023-08-08T10:50:02;4;3;
49462;PMS5003;35357;51.722;0.500;2023-08-08T10:52:31;3;3;
49462;PMS5003;35357;51.722;0.500;2023-08-08T10:54:59;3;3;
49462;PMS5003;35357;51.722;0.500;2023-08-08T10:57:27;2;2;
49462;PMS5003;35357;51.722;0.500;2023-08-08T10:59:54;3;3;
49462;PMS5003;35357;51.722;0.500;2023-08-08T11:02:21;3;3;
49462;PMS5003;35357;51.722;0.500;2023-08-08T11:04:49;2;2;
49462;PMS5003;35357;51.722;0.500;2023-08-08T11:07:17;2;2;
49462;PMS5003;35357;51.722;0.500;2023-08-08T11:09:44;1;1;
49462;PMS5003;35357;51.722;0.500;2023-08-08T11:12:14;3;3;
49462;PMS5003;35357;51.722;0.500;2023-08-08T11:14:42;1;1;
49462;PMS5003;35357;51.722;0.500;2023-08-08T11:17:09;2;2;
49462;PMS5003;35357;51.722;0.500;2023-08-08T11:19:39;3;2;
49462;PMS5003;35357;51.722;0.500;2023-08-08T11:22:09;1;1;
49462;PMS5003;35357;51.722;0.500;2023-08-08T11:24:36;1;1;
49462;PMS5003;35357;51.722;0.500;2023-08-08T11:27:02;1;1;
49462;PMS5003;35357;51.722;0.500;2023-08-08T11:29:30;0;0;
49462;PMS5003;35357;51.722;0.500;2023-08-08T11:31:59;1;1;
49462;PMS5003;35357;51.722;0.500;2023-08-08T11:34:26;1;1;
49462;PMS5003;35357;51.722;0.500;2023-08-08T11:36:56;0;0;
49462;PMS5003;35357;51.722;0.500;2023-08-08T11:39:24;2;2;
49462;PMS5003;35357;51.722;0.500;2023-08-08T11:41:51;1;1;
49462;PMS5003;35357;51.722;0.500;2023-08-08T11:44:19;2;2;
49462;PMS5003;35357;51.722;0.500;2023-08-08T11:46:47;1;1;
49462;PMS5003;35357;51.722;0.500;2023-08-08T11:49:14;1;1;
49462;PMS5003;35357;51.722;0.500;2023-08-08T11:51:43;2;2;
49462;PMS5003;35357;51.722;0.500;2023-08-08T11:54:10;1;1;
49462;PMS5003;35357;51.722;0.500;2023-08-08T11:56:38;2;2;
49462;PMS5003;35357;51.722;0.500;2023-08-08T11:59:05;1;1;
49462;PMS5003;35357;51.722;0.500;2023-08-08T12:01:33;2;2;
49462;PMS5003;35357;51.722;0.500;2023-08-08T12:04:04;4;4;
49462;PMS5003;35357;51.722;0.500;2023-08-08T12:06:32;4;3;
49462;PMS5003;35357;51.722;0.500;2023-08-08T12:09:03;3;2;
49462;PMS5003;35357;51.722;0.500;2023-08-08T12:11:30;2;2;
49462;PMS5003;35357;51.722;0.500;2023-08-08T12:14:00;2;2;
49462;PMS5003;35357;51.722;0.500;2023-08-08T12:16:28;2;2;
49462;PMS5003;35357;51.722;0.500;2023-08-08T12:18:56;2;2;
49462;PMS5003;35357;51.722;0.500;2023-08-08T12:21:23;3;3;
49462;PMS5003;35357;51.722;0.500;2023-08-08T12:23:50;2;2;
49462;PMS5003;35357;51.722;0.500;2023-08-08T12:26:17;3;3;
49462;PMS5003;35357;51.722;0.500;2023-08-08T12:28:44;2;2;
49462;PMS5003;35357;51.722;0.500;2023-08-08T12:31:11;6;4;
49462;PMS5003;35357;51.722;0.500;2023-08-08T12:33:38;5;5;
49462;PMS5003;35357;51.722;0.500;2023-08-08T12:36:05;3;2;
49462;PMS5003;35357;51.722;0.500;2023-08-08T12:38:32;5;5;
49462;PMS5003;35357;51.722;0.500;2023-08-08T12:41:00;6;5;
49462;PMS5003;35357;51.722;0.500;2023-08-08T12:43:28;3;3;
49462;PMS5003;35357;51.722;0.500;2023-08-08T12:45:56;2;2;
49462;PMS5003;35357;51.722;0.500;2023-08-08T12:48:23;2;2;
49462;PMS5003;35357;51.722;0.500;2023-08-08T12:50:50;3;3;
49462;PMS5003;35357;51.722;0.500;2023-08-08T12:53:17;3;3;
49462;PMS5003;35357;51.722;0.500;2023-08-08T12:55:43;2;2;
49462;PMS5003;35357;51.722;0.500;2023-08-08T12:58:10;0;0;
49462;PMS5003;35357;51.722;0.500;2023-08-08T13:00:37;2;2;
49462;PMS5003;35357;51.722;0.500;2023-08-08T13:03:04;2;2;
49462;PMS5003;35357;51.722;0.500;2023-08-08T13:05:31;1;1;
49462;PMS5003;35357;51.722;0.500;2023-08-08T13:07:59;3;3;
49462;PMS5003;35357;51.722;0.500;2023-08-08T13:10:26;2;2;
49462;PMS5003;35357;51.722;0.500;2023-08-08T13:12:53;3;3;
49462;PMS5003;35357;51.722;0.500;2023-08-08T13:15:20;3;3;
49462;PMS5003;35357;51.722;0.500;2023-08-08T13:17:47;3;2;
49462;PMS5003;35357;51.722;0.500;2023-08-08T13:20:14;2;2;
49462;PMS5003;35357;51.722;0.500;2023-08-08T13:22:42;1;1;
49462;PMS5003;35357;51.722;0.500;2023-08-08T13:25:09;4;4;
49462;PMS5003;35357;51.722;0.500;2023-08-08T13:27:37;4;4;
49462;PMS5003;35357;51.722;0.500;2023-08-08T13:30:04;5;5;
49462;PMS5003;35357;51.722;0.500;2023-08-08T13:32:32;4;4;
49462;PMS5003;35357;51.722;0.500;2023-08-08T13:34:59;5;5;
49462;PMS5003;35357;51.722;0.500;2023-08-08T13:37:26;3;3;
49462;PMS5003;35357;51.722;0.500;2023-08-08T13:39:53;1;1;
49462;PMS5003;35357;51.722;0.500;2023-08-08T13:42:20;3;3;
49462;PMS5003;35357;51.722;0.500;2023-08-08T13:44:48;3;3;
49462;PMS5003;35357;51.722;0.500;2023-08-08T13:47:15;2;2;
49462;PMS5003;35357;51.722;0.500;2023-08-08T13:49:42;4;3;
49462;PMS5003;35357;51.722;0.500;2023-08-08T13:52:10;3;3;
49462;PMS5003;35357;51.722;0.500;2023-08-08T13:54:37;2;2;
49462;PMS5003;35357;51.722;0.500;2023-08-08T13:57:04;4;4;
49462;PMS5003;35357;51.722;0.500;2023-08-08T13:59:32;3;3;
49462;PMS5003;35357;51.722;0.500;2023-08-08T14:01:59;3;3;
49462;PMS5003;35357;51.722;0.500;2023-08-08T14:04:26;4;4;
49462;PMS5003;35357;51.722;0.500;2023-08-08T14:06:54;4;4;
49462;PMS5003;35357;51.722;0.500;2023-08-08T14:09:21;2;2;
49462;PMS5003;35357;51.722;0.500;2023-08-08T14:11:48;3;3;
49462;PMS5003;35357;51.722;0.500;2023-08-08T14:14:16;2;2;
49462;PMS5003;35357;51.722;0.500;2023-08-08T14:16:43;3;3;
49462;PMS5003;35357;51.722;0.500;2023-08-08T14:19:10;3;3;
49462;PMS5003;35357;51.722;0.500;2023-08-08T14:21:37;3;3;
49462;PMS5003;35357;51.722;0.500;2023-08-08T14:24:04;3;3;
49462;PMS5003;35357;51.722;0.500;2023-08-08T14:26:31;2;2;
49462;PMS5003;35357;51.722;0.500;2023-08-08T14:28:59;4;3;
49462;PMS5003;35357;51.722;0.500;2023-08-08T14:31:25;2;2;
49462;PMS5003;35357;51.722;0.500;2023-08-08T14:33:52;2;2;
49462;PMS5003;35357;51.722;0.500;2023-08-08T14:36:19;3;3;
49462;PMS5003;35357;51.722;0.500;2023-08-08T14:38:46;3;3;
49462;PMS5003;35357;51.722;0.500;2023-08-08T14:41:14;3;3;
49462;PMS5003;35357;51.722;0.500;2023-08-08T14:43:41;4;3;
49462;PMS5003;35357;51.722;0.500;2023-08-08T14:46:08;2;2;
49462;PMS5003;35357;51.722;0.500;2023-08-08T14:48:35;2;2;
49462;PMS5003;35357;51.722;0.500;2023-08-08T14:51:02;1;1;
49462;PMS5003;35357;51.722;0.500;2023-08-08T14:53:29;1;1;
49462;PMS5003;35357;51.722;0.500;2023-08-08T14:55:56;2;2;
49462;PMS5003;35357;51.722;0.500;2023-08-08T14:58:23;4;2;
49462;PMS5003;35357;51.722;0.500;2023-08-08T15:00:50;3;3;
49462;PMS5003;35357;51.722;0.500;2023-08-08T15:03:18;3;3;
49462;PMS5003;35357;51.722;0.500;2023-08-08T15:05:45;2;2;
49462;PMS5003;35357;51.722;0.500;2023-08-08T15:08:11;5;4;
49462;PMS5003;35357;51.722;0.500;2023-08-08T15:10:38;3;3;
49462;PMS5003;35357;51.722;0.500;2023-08-08T15:13:05;5;5;
49462;PMS5003;35357;51.722;0.500;2023-08-08T15:15:31;4;4;
49462;PMS5003;35357;51.722;0.500;2023-08-08T15:17:59;3;3;
49462;PMS5003;35357;51.722;0.500;2023-08-08T15:20:26;3;3;
49462;PMS5003;35357;51.722;0.500;2023-08-08T15:22:54;3;3;
49462;PMS5003;35357;51.722;0.500;2023-08-08T15:25:22;4;4;
49462;PMS5003;35357;51.722;0.500;2023-08-08T15:27:49;4;4;
49462;PMS5003;35357;51.722;0.500;2023-08-08T15:30:17;5;4;
49462;PMS5003;35357;51.722;0.500;2023-08-08T15:32:44;3;3;
49462;PMS5003;35357;51.722;0.500;2023-08-08T15:35:11;2;2;
49462;PMS5003;35357;51.722;0.500;2023-08-08T15:37:38;4;4;
49462;PMS5003;35357;51.722;0.500;2023-08-08T15:40:05;4;4;
49462;PMS5003;35357;51.722;0.500;2023-08-08T15:42:33;4;4;
49462;PMS5003;35357;51.722;0.500;2023-08-08T15:45:00;6;5;
49462;PMS5003;35357;51.722;0.500;2023-08-08T15:47:28;6;6;
49462;PMS5003;35357;51.722;0.500;2023-08-08T15:49:55;5;5;
49462;PMS5003;35357;51.722;0.500;2023-08-08T15:52:22;5;5;
49462;PMS5003;35357;51.722;0.500;2023-08-08T15:54:50;6;6;
49462;PMS5003;35357;51.722;0.500;2023-08-08T15:57:17;5;5;
49462;PMS5003;35357;51.722;0.500;2023-08-08T15:59:45;7;7;
49462;PMS5003;35357;51.722;0.500;2023-08-08T16:02:12;6;6;
49462;PMS5003;35357;51.722;0.500;2023-08-08T16:04:38;8;8;
49462;PMS5003;35357;51.722;0.500;2023-08-08T16:07:05;5;5;
49462;PMS5003;35357;51.722;0.500;2023-08-08T16:09:32;6;6;
49462;PMS5003;35357;51.722;0.500;2023-08-08T16:12:00;7;7;
49462;PMS5003;35357;51.722;0.500;2023-08-08T16:14:26;7;7;
49462;PMS5003;35357;51.722;0.500;2023-08-08T16:16:54;7;7;
49462;PMS5003;35357;51.722;0.500;2023-08-08T16:19:21;7;7;
49462;PMS5003;35357;51.722;0.500;2023-08-08T16:21:47;11;10;
49462;PMS5003;35357;51.722;0.500;2023-08-08T16:24:14;9;9;
49462;PMS5003;35357;51.722;0.500;2023-08-08T16:26:41;8;8;
49462;PMS5003;35357;51.722;0.500;2023-08-08T16:29:08;8;8;
49462;PMS5003;35357;51.722;0.500;2023-08-08T16:31:36;8;8;
49462;PMS5003;35357;51.722;0.500;2023-08-08T16:34:03;8;8;
49462;PMS5003;35357;51.722;0.500;2023-08-08T16:36:30;9;7;
49462;PMS5003;35357;51.722;0.500;2023-08-08T16:38:59;9;7;
49462;PMS5003;35357;51.722;0.500;2023-08-08T16:41:26;7;7;
49462;PMS5003;35357;51.722;0.500;2023-08-08T16:43:54;8;8;
49462;PMS5003;35357;51.722;0.500;2023-08-08T16:46:27;9;8;
49462;PMS5003;35357;51.722;0.500;2023-08-08T16:48:54;9;8;
49462;PMS5003;35357;51.722;0.500;2023-08-08T16:51:22;8;8;